sensor_id;sensor_type;location;lat;lon;timestamp;pressure;altitude;pressure_sealevel;temperature;humidity
69245;BME280;56357;52.304;4.870;2022-08-25T00:01:20;101963.50;;;25.78;66.55
69245;BME280;56357;52.304;4.870;2022-08-25T00:03:47;101959.19;;;25.80;66.24
69245;BME280;56357;52.304;4.870;2022-08-25T00:06:14;101962.66;;;25.77;66.30
69245;BME280;56357;52.304;4.870;2022-08-25T00:08:42;101970.63;;;25.75;66.37
69245;BME280;56357;52.304;4.870;2022-08-25T00:11:18;101961.22;;;25.80;66.45
69245;BME280;56357;52.304;4.870;2022-08-25T00:13:48;101961.56;;;25.73;66.62
69245;BME280;56357;52.304;4.870;2022-08-25T00:16:18;101948.56;;;25.72;66.59
69245;BME280;56357;52.304;4.870;2022-08-25T00:18:48;101952.84;;;25.70;66.64
69245;BME280;56357;52.304;4.870;2022-08-25T00:21:15;101952.84;;;25.70;66.68
69245;BME280;56357;52.304;4.870;2022-08-25T00:23:42;101951.63;;;25.76;66.26
69245;BME280;56357;52.304;4.870;2022-08-25T00:26:09;101950.84;;;25.70;66.54
69245;BME280;56357;52.304;4.870;2022-08-25T00:28:37;101953.16;;;25.68;66.53
69245;BME280;56357;52.304;4.870;2022-08-25T00:31:05;101949.00;;;25.61;66.87
69245;BME280;56357;52.304;4.870;2022-08-25T00:33:32;101948.47;;;25.59;66.43
69245;BME280;56357;52.304;4.870;2022-08-25T00:35:59;101948.47;;;25.59;66.79
69245;BME280;56357;52.304;4.870;2022-08-25T00:38:26;101943.00;;;25.62;66.46
69245;BME280;56357;52.304;4.870;2022-08-25T00:40:53;101945.53;;;25.64;66.64
69245;BME280;56357;52.304;4.870;2022-08-25T00:46:07;101946.16;;;25.61;66.27
69245;BME280;56357;52.304;4.870;2022-08-25T00:48:34;101941.09;;;25.58;66.40
69245;BME280;56357;52.304;4.870;2022-08-25T00:51:01;101945.84;;;25.62;66.17
69245;BME280;56357;52.304;4.870;2022-08-25T00:53:29;101947.28;;;25.60;66.62
69245;BME280;56357;52.304;4.870;2022-08-25T00:55:56;101940.50;;;25.61;66.43
69245;BME280;56357;52.304;4.870;2022-08-25T00:58:25;101944.22;;;25.56;66.64
69245;BME280;56357;52.304;4.870;2022-08-25T01:00:54;101938.31;;;25.53;66.75
69245;BME280;56357;52.304;4.870;2022-08-25T01:03:23;101938.63;;;25.51;66.53
69245;BME280;56357;52.304;4.870;2022-08-25T01:05:52;101944.00;;;25.53;66.56
69245;BME280;56357;52.304;4.870;2022-08-25T01:08:20;101940.00;;;25.54;66.48
69245;BME280;56357;52.304;4.870;2022-08-25T01:10:52;101936.38;;;25.48;66.54
69245;BME280;56357;52.304;4.870;2022-08-25T01:13:27;101929.28;;;25.51;66.40
69245;BME280;56357;52.304;4.870;2022-08-25T01:15:57;101933.31;;;25.45;66.44
69245;BME280;56357;52.304;4.870;2022-08-25T01:18:25;101941.22;;;25.48;66.42
69245;BME280;56357;52.304;4.870;2022-08-25T01:20:54;101922.84;;;25.45;66.52
69245;BME280;56357;52.304;4.870;2022-08-25T01:23:21;101924.28;;;25.43;66.53
69245;BME280;56357;52.304;4.870;2022-08-25T01:26:34;101924.31;;;25.37;66.90
69245;BME280;56357;52.304;4.870;2022-08-25T01:28:54;101924.81;;;25.45;66.43
69245;BME280;56357;52.304;4.870;2022-08-25T01:31:39;101929.94;;;25.43;66.52
69245;BME280;56357;52.304;4.870;2022-08-25T01:34:07;101930.56;;;25.40;66.54
69245;BME280;56357;52.304;4.870;2022-08-25T01:36:34;101931.66;;;25.38;66.50
69245;BME280;56357;52.304;4.870;2022-08-25T01:39:02;101924.59;;;25.41;66.51
69245;BME280;56357;52.304;4.870;2022-08-25T01:43:55;101927.78;;;25.53;65.95
69245;BME280;56357;52.304;4.870;2022-08-25T01:46:21;101927.13;;;25.43;66.40
69245;BME280;56357;52.304;4.870;2022-08-25T01:48:48;101924.81;;;25.45;66.61
69245;BME280;56357;52.304;4.870;2022-08-25T01:51:15;101920.28;;;25.44;66.77
69245;BME280;56357;52.304;4.870;2022-08-25T01:53:41;101920.09;;;25.59;65.84
69245;BME280;56357;52.304;4.870;2022-08-25T01:56:11;101922.22;;;25.48;66.20
69245;BME280;56357;52.304;4.870;2022-08-25T01:58:41;101914.66;;;25.38;66.42
69245;BME280;56357;52.304;4.870;2022-08-25T02:01:14;101912.47;;;25.30;67.08
69245;BME280;56357;52.304;4.870;2022-08-25T02:03:44;101911.34;;;25.31;66.42
69245;BME280;56357;52.304;4.870;2022-08-25T02:06:14;101913.41;;;25.26;66.65
69245;BME280;56357;52.304;4.870;2022-08-25T02:08:41;101910.31;;;25.22;66.78
69245;BME280;56357;52.304;4.870;2022-08-25T02:11:14;101906.13;;;25.20;66.87
69245;BME280;56357;52.304;4.870;2022-08-25T02:13:41;101912.56;;;25.25;66.37
69245;BME280;56357;52.304;4.870;2022-08-25T02:16:09;101917.69;;;25.23;66.72
69245;BME280;56357;52.304;4.870;2022-08-25T02:18:35;101907.22;;;25.24;66.29
69245;BME280;56357;52.304;4.870;2022-08-25T02:21:02;101904.41;;;25.19;66.38
69245;BME280;56357;52.304;4.870;2022-08-25T02:23:28;101902.97;;;25.21;66.23
69245;BME280;56357;52.304;4.870;2022-08-25T02:25:55;101909.81;;;25.20;65.81
69245;BME280;56357;52.304;4.870;2022-08-25T02:28:22;101899.38;;;25.16;65.85
69245;BME280;56357;52.304;4.870;2022-08-25T02:30:49;101901.03;;;25.17;65.58
69245;BME280;56357;52.304;4.870;2022-08-25T02:33:17;101899.69;;;25.14;65.37
69245;BME280;56357;52.304;4.870;2022-08-25T02:35:43;101894.06;;;25.09;65.38
69245;BME280;56357;52.304;4.870;2022-08-25T02:38:10;101889.47;;;25.13;65.29
69245;BME280;56357;52.304;4.870;2022-08-25T02:40:36;101894.91;;;25.10;65.07
69245;BME280;56357;52.304;4.870;2022-08-25T02:43:03;101886.47;;;25.05;64.76
69245;BME280;56357;52.304;4.870;2022-08-25T02:45:30;101887.69;;;24.99;64.56
69245;BME280;56357;52.304;4.870;2022-08-25T02:47:56;101889.66;;;24.98;64.39
69245;BME280;56357;52.304;4.870;2022-08-25T02:50:23;101882.84;;;24.99;63.91
69245;BME280;56357;52.304;4.870;2022-08-25T02:52:50;101886.28;;;24.96;63.83
69245;BME280;56357;52.304;4.870;2022-08-25T02:55:17;101879.50;;;24.97;63.43
69245;BME280;56357;52.304;4.870;2022-08-25T02:57:43;101877.47;;;24.98;63.36
69245;BME280;56357;52.304;4.870;2022-08-25T03:00:12;101877.25;;;24.94;63.01
69245;BME280;56357;52.304;4.870;2022-08-25T03:02:39;101877.25;;;24.94;62.78
69245;BME280;56357;52.304;4.870;2022-08-25T03:05:06;101871.88;;;24.93;62.50
69245;BME280;56357;52.304;4.870;2022-08-25T03:07:34;101868.75;;;24.94;62.56
69245;BME280;56357;52.304;4.870;2022-08-25T03:10:10;101864.81;;;24.90;62.34
69245;BME280;56357;52.304;4.870;2022-08-25T03:12:37;101857.41;;;24.94;62.17
69245;BME280;56357;52.304;4.870;2022-08-25T03:15:06;101864.81;;;24.90;62.13
69245;BME280;56357;52.304;4.870;2022-08-25T03:17:33;101853.78;;;24.89;62.08
69245;BME280;56357;52.304;4.870;2022-08-25T03:20:02;101853.47;;;24.90;61.84
69245;BME280;56357;52.304;4.870;2022-08-25T03:22:29;101859.22;;;24.85;62.17
69245;BME280;56357;52.304;4.870;2022-08-25T03:24:55;101853.56;;;24.85;61.68
69245;BME280;56357;52.304;4.870;2022-08-25T03:27:42;101854.97;;;24.88;61.55
69245;BME280;56357;52.304;4.870;2022-08-25T03:30:08;101851.03;;;24.84;61.57
69245;BME280;56357;52.304;4.870;2022-08-25T03:32:35;101847.03;;;24.85;61.36
69245;BME280;56357;52.304;4.870;2022-08-25T03:35:02;101847.91;;;24.85;61.45
69245;BME280;56357;52.304;4.870;2022-08-25T03:37:28;101839.69;;;24.84;61.40
69245;BME280;56357;52.304;4.870;2022-08-25T03:39:55;101844.28;;;24.80;61.01
69245;BME280;56357;52.304;4.870;2022-08-25T03:42:21;101838.88;;;24.78;61.28
69245;BME280;56357;52.304;4.870;2022-08-25T03:44:48;101832.94;;;24.80;60.89
69245;BME280;56357;52.304;4.870;2022-08-25T03:47:15;101828.19;;;24.75;60.74
69245;BME280;56357;52.304;4.870;2022-08-25T03:49:41;101831.88;;;24.76;60.94
69245;BME280;56357;52.304;4.870;2022-08-25T03:52:08;101829.25;;;24.79;60.74
69245;BME280;56357;52.304;4.870;2022-08-25T03:54:34;101830.47;;;24.73;60.68
69245;BME280;56357;52.304;4.870;2022-08-25T03:57:01;101823.13;;;24.67;60.61
69245;BME280;56357;52.304;4.870;2022-08-25T03:59:28;101819.19;;;24.68;60.43
69245;BME280;56357;52.304;4.870;2022-08-25T04:01:54;101817.69;;;24.71;60.30
69245;BME280;56357;52.304;4.870;2022-08-25T04:04:21;101817.47;;;24.67;60.43
69245;BME280;56357;52.304;4.870;2022-08-25T04:06:47;101816.94;;;24.65;60.33
69245;BME280;56357;52.304;4.870;2022-08-25T04:09:14;101805.06;;;24.63;60.05
69245;BME280;56357;52.304;4.870;2022-08-25T04:11:40;101810.13;;;24.66;59.97
69245;BME280;56357;52.304;4.870;2022-08-25T04:14:06;101804.22;;;24.63;60.22
69245;BME280;56357;52.304;4.870;2022-08-25T04:16:33;101804.78;;;24.65;60.20
69245;BME280;56357;52.304;4.870;2022-08-25T04:19:03;101802.22;;;24.63;60.11
69245;BME280;56357;52.304;4.870;2022-08-25T04:21:30;101812.97;;;24.66;60.00
69245;BME280;56357;52.304;4.870;2022-08-25T04:23:56;101810.44;;;24.65;60.50
69245;BME280;56357;52.304;4.870;2022-08-25T04:26:26;101811.81;;;24.67;59.97
69245;BME280;56357;52.304;4.870;2022-08-25T04:28:54;101806.69;;;24.69;59.88
69245;BME280;56357;52.304;4.870;2022-08-25T04:31:22;101802.53;;;24.62;59.44
69245;BME280;56357;52.304;4.870;2022-08-25T04:33:49;101802.91;;;24.55;60.01
69245;BME280;56357;52.304;4.870;2022-08-25T04:36:17;101804.59;;;24.56;59.48
69245;BME280;56357;52.304;4.870;2022-08-25T04:38:44;101800.34;;;24.53;59.33
69245;BME280;56357;52.304;4.870;2022-08-25T04:41:13;101793.88;;;24.53;59.34
69245;BME280;56357;52.304;4.870;2022-08-25T04:43:41;101799.28;;;24.49;59.32
69245;BME280;56357;52.304;4.870;2022-08-25T04:46:20;101796.69;;;24.53;59.13
69245;BME280;56357;52.304;4.870;2022-08-25T04:48:48;101800.66;;;24.52;58.91
69245;BME280;56357;52.304;4.870;2022-08-25T04:51:30;101802.28;;;24.58;59.58
69245;BME280;56357;52.304;4.870;2022-08-25T04:53:59;101795.34;;;24.69;58.19
69245;BME280;56357;52.304;4.870;2022-08-25T04:56:26;101802.13;;;24.73;58.33
69245;BME280;56357;52.304;4.870;2022-08-25T04:58:54;101793.13;;;24.66;57.54
69245;BME280;56357;52.304;4.870;2022-08-25T05:01:23;101799.47;;;24.58;57.40
69245;BME280;56357;52.304;4.870;2022-08-25T05:03:55;101803.00;;;24.69;58.02
69245;BME280;56357;52.304;4.870;2022-08-25T05:06:24;101800.16;;;24.74;57.26
69245;BME280;56357;52.304;4.870;2022-08-25T05:08:51;101801.81;;;24.75;57.51
69245;BME280;56357;52.304;4.870;2022-08-25T05:11:18;101811.50;;;24.74;57.73
69245;BME280;56357;52.304;4.870;2022-08-25T05:13:46;101804.13;;;24.73;57.70
69245;BME280;56357;52.304;4.870;2022-08-25T05:16:13;101815.72;;;24.76;57.85
69245;BME280;56357;52.304;4.870;2022-08-25T05:18:40;101811.41;;;24.79;57.52
69245;BME280;56357;52.304;4.870;2022-08-25T05:21:13;101806.38;;;24.76;57.72
69245;BME280;56357;52.304;4.870;2022-08-25T05:23:40;101811.63;;;24.82;57.80
69245;BME280;56357;52.304;4.870;2022-08-25T05:26:12;101804.31;;;24.81;57.63
69245;BME280;56357;52.304;4.870;2022-08-25T05:28:39;101808.81;;;24.82;57.45
69245;BME280;56357;52.304;4.870;2022-08-25T05:31:09;101812.81;;;24.81;57.21
69245;BME280;56357;52.304;4.870;2022-08-25T05:33:36;101810.50;;;24.83;57.04
69245;BME280;56357;52.304;4.870;2022-08-25T05:36:04;101808.81;;;24.82;57.32
69245;BME280;56357;52.304;4.870;2022-08-25T05:38:31;101819.91;;;24.79;56.96
69245;BME280;56357;52.304;4.870;2022-08-25T05:41:02;101808.81;;;24.82;56.62
69245;BME280;56357;52.304;4.870;2022-08-25T05:43:30;101816.19;;;24.83;56.84
69245;BME280;56357;52.304;4.870;2022-08-25T05:45:57;101819.59;;;24.80;57.38
69245;BME280;56357;52.304;4.870;2022-08-25T05:48:25;101819.91;;;24.79;57.60
69245;BME280;56357;52.304;4.870;2022-08-25T05:50:52;101824.44;;;24.80;57.53
69245;BME280;56357;52.304;4.870;2022-08-25T05:53:20;101822.44;;;24.80;57.23
69245;BME280;56357;52.304;4.870;2022-08-25T05:55:47;101824.13;;;24.81;57.35
69245;BME280;56357;52.304;4.870;2022-08-25T05:58:14;101821.31;;;24.81;57.09
69245;BME280;56357;52.304;4.870;2022-08-25T06:00:40;101819.00;;;24.83;57.01
69245;BME280;56357;52.304;4.870;2022-08-25T06:03:06;101819.59;;;24.80;56.97
69245;BME280;56357;52.304;4.870;2022-08-25T06:05:32;101814.75;;;24.86;56.84
69245;BME280;56357;52.304;4.870;2022-08-25T06:07:59;101826.31;;;24.89;56.75
69245;BME280;56357;52.304;4.870;2022-08-25T06:10:27;101820.09;;;24.87;56.75
69245;BME280;56357;52.304;4.870;2022-08-25T06:12:53;101824.59;;;24.88;56.79
69245;BME280;56357;52.304;4.870;2022-08-25T06:15:22;101827.97;;;24.90;56.55
69245;BME280;56357;52.304;4.870;2022-08-25T06:17:49;101823.25;;;24.86;56.25
69245;BME280;56357;52.304;4.870;2022-08-25T06:20:20;101820.22;;;24.77;55.43
69245;BME280;56357;52.304;4.870;2022-08-25T06:22:48;101806.53;;;24.61;55.37
69245;BME280;56357;52.304;4.870;2022-08-25T06:25:17;101816.75;;;24.57;55.49
69245;BME280;56357;52.304;4.870;2022-08-25T06:27:44;101810.25;;;24.56;55.62
69245;BME280;56357;52.304;4.870;2022-08-25T06:30:13;101818.69;;;24.61;55.31
69245;BME280;56357;52.304;4.870;2022-08-25T06:32:42;101819.28;;;24.58;55.47
69245;BME280;56357;52.304;4.870;2022-08-25T06:35:11;101818.97;;;24.60;55.68
69245;BME280;56357;52.304;4.870;2022-08-25T06:37:38;101818.44;;;24.58;55.80
69245;BME280;56357;52.304;4.870;2022-08-25T06:40:08;101811.34;;;24.60;55.34
69245;BME280;56357;52.304;4.870;2022-08-25T06:42:35;101811.56;;;24.64;55.25
69245;BME280;56357;52.304;4.870;2022-08-25T06:45:03;101811.50;;;24.74;55.76
69245;BME280;56357;52.304;4.870;2022-08-25T06:47:30;101811.09;;;24.80;55.17
69245;BME280;56357;52.304;4.870;2022-08-25T06:49:57;101803.63;;;24.89;54.88
69245;BME280;56357;52.304;4.870;2022-08-25T06:52:23;101805.84;;;24.92;55.01
69245;BME280;56357;52.304;4.870;2022-08-25T06:54:50;101806.31;;;24.99;54.73
69245;BME280;56357;52.304;4.870;2022-08-25T06:57:17;101811.84;;;25.09;54.54
69245;BME280;56357;52.304;4.870;2022-08-25T06:59:43;101814.84;;;25.18;54.44
69245;BME280;56357;52.304;4.870;2022-08-25T07:02:10;101809.63;;;25.25;54.50
69245;BME280;56357;52.304;4.870;2022-08-25T07:04:36;101813.19;;;25.35;53.66
69245;BME280;56357;52.304;4.870;2022-08-25T07:07:03;101811.69;;;25.38;53.95
69245;BME280;56357;52.304;4.870;2022-08-25T07:09:29;101817.03;;;25.45;53.51
69245;BME280;56357;52.304;4.870;2022-08-25T07:11:56;101813.88;;;25.46;53.58
69245;BME280;56357;52.304;4.870;2022-08-25T07:14:22;101811.34;;;25.45;53.94
69245;BME280;56357;52.304;4.870;2022-08-25T07:16:49;101817.03;;;25.45;53.69
69245;BME280;56357;52.304;4.870;2022-08-25T07:19:15;101815.59;;;25.47;53.64
69245;BME280;56357;52.304;4.870;2022-08-25T07:21:44;101807.19;;;25.56;53.58
69245;BME280;56357;52.304;4.870;2022-08-25T07:24:13;101814.16;;;25.63;53.63
69245;BME280;56357;52.304;4.870;2022-08-25T07:26:41;101805.50;;;25.73;53.54
69245;BME280;56357;52.304;4.870;2022-08-25T07:29:19;101812.34;;;25.72;53.18
69245;BME280;56357;52.304;4.870;2022-08-25T07:31:46;101812.34;;;25.72;53.15
69245;BME280;56357;52.304;4.870;2022-08-25T07:34:12;101809.41;;;25.77;53.17
69245;BME280;56357;52.304;4.870;2022-08-25T07:36:56;101818.56;;;25.88;52.97
69245;BME280;56357;52.304;4.870;2022-08-25T07:39:24;101817.44;;;25.89;52.84
69245;BME280;56357;52.304;4.870;2022-08-25T07:41:52;101813.03;;;25.96;52.79
69245;BME280;56357;52.304;4.870;2022-08-25T07:44:20;101812.13;;;26.01;53.03
69245;BME280;56357;52.304;4.870;2022-08-25T07:46:48;101806.59;;;26.09;53.43
69245;BME280;56357;52.304;4.870;2022-08-25T07:49:14;101808.06;;;26.20;53.10
69245;BME280;56357;52.304;4.870;2022-08-25T07:51:41;101800.22;;;26.31;52.61
69245;BME280;56357;52.304;4.870;2022-08-25T07:54:07;101788.97;;;26.26;52.20
69245;BME280;56357;52.304;4.870;2022-08-25T07:56:34;101804.44;;;26.34;52.10
69245;BME280;56357;52.304;4.870;2022-08-25T07:59:00;101812.00;;;26.38;52.47
69245;BME280;56357;52.304;4.870;2022-08-25T08:01:27;101809.06;;;26.43;52.25
69245;BME280;56357;52.304;4.870;2022-08-25T08:03:54;101813.38;;;26.54;52.63
69245;BME280;56357;52.304;4.870;2022-08-25T08:06:23;101808.25;;;26.56;52.40
69245;BME280;56357;52.304;4.870;2022-08-25T08:08:51;101801.19;;;26.67;52.19
69245;BME280;56357;52.304;4.870;2022-08-25T08:11:29;101802.88;;;26.68;51.31
69245;BME280;56357;52.304;4.870;2022-08-25T08:13:57;101801.63;;;26.74;52.45
69245;BME280;56357;52.304;4.870;2022-08-25T08:16:25;101803.13;;;26.72;52.13
69245;BME280;56357;52.304;4.870;2022-08-25T08:18:52;101792.81;;;26.76;51.66
69245;BME280;56357;52.304;4.870;2022-08-25T08:21:22;101797.44;;;26.85;51.63
69245;BME280;56357;52.304;4.870;2022-08-25T08:23:51;101789.44;;;26.87;51.56
69245;BME280;56357;52.304;4.870;2022-08-25T08:26:18;101780.25;;;26.90;51.72
69245;BME280;56357;52.304;4.870;2022-08-25T08:28:44;101777.94;;;26.92;51.21
69245;BME280;56357;52.304;4.870;2022-08-25T08:31:10;101782.34;;;26.98;51.43
69245;BME280;56357;52.304;4.870;2022-08-25T08:33:37;101786.63;;;27.09;51.89
69245;BME280;56357;52.304;4.870;2022-08-25T08:36:06;101790.19;;;27.15;52.13
69245;BME280;56357;52.304;4.870;2022-08-25T08:38:34;101799.44;;;27.21;50.81
69245;BME280;56357;52.304;4.870;2022-08-25T08:44:07;101787.34;;;27.15;52.13
69245;BME280;56357;52.304;4.870;2022-08-25T08:50:04;101784.09;;;27.22;48.63
69245;BME280;56357;52.304;4.870;2022-08-25T08:55:33;101793.09;;;27.51;49.50
69245;BME280;56357;52.304;4.870;2022-08-25T08:58:12;101785.88;;;27.53;49.78
69245;BME280;56357;52.304;4.870;2022-08-25T09:00:45;101786.75;;;27.54;50.36
69245;BME280;56357;52.304;4.870;2022-08-25T09:05:49;101787.38;;;27.73;49.48
69245;BME280;56357;52.304;4.870;2022-08-25T09:08:16;101781.06;;;27.76;49.20
69245;BME280;56357;52.304;4.870;2022-08-25T09:10:59;101794.81;;;27.82;49.75
69245;BME280;56357;52.304;4.870;2022-08-25T09:13:52;101788.25;;;27.95;50.02
69245;BME280;56357;52.304;4.870;2022-08-25T09:17:01;101790.28;;;27.95;50.04
69245;BME280;56357;52.304;4.870;2022-08-25T09:29:55;101779.50;;;28.14;49.82
69245;BME280;56357;52.304;4.870;2022-08-25T09:32:24;101786.69;;;28.12;50.20
69245;BME280;56357;52.304;4.870;2022-08-25T09:34:53;101785.31;;;28.09;50.69
69245;BME280;56357;52.304;4.870;2022-08-25T09:37:21;101775.47;;;28.15;49.77
69245;BME280;56357;52.304;4.870;2022-08-25T09:39:49;101769.50;;;28.25;50.06
69245;BME280;56357;52.304;4.870;2022-08-25T09:42:17;101774.34;;;28.25;50.97
69245;BME280;56357;52.304;4.870;2022-08-25T09:44:45;101770.88;;;28.36;50.20
69245;BME280;56357;52.304;4.870;2022-08-25T09:47:24;101772.38;;;28.34;50.33
69245;BME280;56357;52.304;4.870;2022-08-25T09:50:02;101766.38;;;28.35;50.31
69245;BME280;56357;52.304;4.870;2022-08-25T09:52:37;101764.03;;;28.37;50.49
69245;BME280;56357;52.304;4.870;2022-08-25T09:57:37;101773.28;;;28.51;50.41
69245;BME280;56357;52.304;4.870;2022-08-25T10:02:37;101752.66;;;28.46;50.26
69245;BME280;56357;52.304;4.870;2022-08-25T10:05:21;101756.91;;;28.57;50.26
69245;BME280;56357;52.304;4.870;2022-08-25T10:07:57;101747.03;;;28.54;50.24
69245;BME280;56357;52.304;4.870;2022-08-25T10:10:37;101754.41;;;28.55;50.19
69245;BME280;56357;52.304;4.870;2022-08-25T10:13:13;101746.88;;;28.59;50.08
69245;BME280;56357;52.304;4.870;2022-08-25T10:15:40;101751.16;;;28.48;51.06
69245;BME280;56357;52.304;4.870;2022-08-25T10:18:26;101748.25;;;28.31;51.75
69245;BME280;56357;52.304;4.870;2022-08-25T10:21:13;101747.06;;;28.32;51.63
69245;BME280;56357;52.304;4.870;2022-08-25T10:26:17;101743.25;;;28.37;51.32
69245;BME280;56357;52.304;4.870;2022-08-25T10:29:15;101743.25;;;28.37;51.54
69245;BME280;56357;52.304;4.870;2022-08-25T10:31:55;101734.50;;;28.33;51.88
69245;BME280;56357;52.304;4.870;2022-08-25T10:34:48;101726.31;;;28.40;52.21
69245;BME280;56357;52.304;4.870;2022-08-25T10:37:36;101725.47;;;28.40;52.26
69245;BME280;56357;52.304;4.870;2022-08-25T10:40:22;101720.09;;;28.38;51.84
69245;BME280;56357;52.304;4.870;2022-08-25T10:45:50;101701.19;;;28.42;51.60
69245;BME280;56357;52.304;4.870;2022-08-25T10:53:55;101702.50;;;28.36;52.10
69245;BME280;56357;52.304;4.870;2022-08-25T10:56:34;101709.69;;;28.34;52.22
69245;BME280;56357;52.304;4.870;2022-08-25T11:04:46;101697.59;;;28.28;52.20
69245;BME280;56357;52.304;4.870;2022-08-25T11:07:26;101696.06;;;28.22;52.19
69245;BME280;56357;52.304;4.870;2022-08-25T11:10:03;101698.91;;;28.22;52.42
69245;BME280;56357;52.304;4.870;2022-08-25T11:12:35;101694.22;;;28.18;52.82
69245;BME280;56357;52.304;4.870;2022-08-25T11:15:19;101700.94;;;28.22;52.56
69245;BME280;56357;52.304;4.870;2022-08-25T11:18:12;101700.09;;;28.21;52.54
69245;BME280;56357;52.304;4.870;2022-08-25T11:20:44;101688.34;;;28.14;52.66
69245;BME280;56357;52.304;4.870;2022-08-25T11:26:05;101684.81;;;28.17;53.17
69245;BME280;56357;52.304;4.870;2022-08-25T11:28:58;101696.56;;;28.16;53.19
69245;BME280;56357;52.304;4.870;2022-08-25T11:31:26;101695.53;;;28.12;52.74
69245;BME280;56357;52.304;4.870;2022-08-25T11:33:54;101691.50;;;28.13;52.97
69245;BME280;56357;52.304;4.870;2022-08-25T11:36:27;101693.53;;;28.12;53.32
69245;BME280;56357;52.304;4.870;2022-08-25T11:44:28;101688.19;;;28.19;52.89
69245;BME280;56357;52.304;4.870;2022-08-25T11:51:57;101676.47;;;28.21;53.02
69245;BME280;56357;52.304;4.870;2022-08-25T11:54:28;101668.75;;;28.21;52.49
69245;BME280;56357;52.304;4.870;2022-08-25T11:56:59;101673.16;;;28.27;51.66
69245;BME280;56357;52.304;4.870;2022-08-25T12:02:43;101667.28;;;28.32;52.62
69245;BME280;56357;52.304;4.870;2022-08-25T12:10:24;101655.59;;;28.42;52.21
69245;BME280;56357;52.304;4.870;2022-08-25T12:13:00;101656.94;;;28.45;52.08
69245;BME280;56357;52.304;4.870;2022-08-25T12:23:40;101656.09;;;28.44;52.56
69245;BME280;56357;52.304;4.870;2022-08-25T12:29:07;101658.59;;;28.46;52.25
69245;BME280;56357;52.304;4.870;2022-08-25T12:32:05;101652.56;;;28.47;51.87
69245;BME280;56357;52.304;4.870;2022-08-25T12:34:42;101644.53;;;28.49;52.18
69245;BME280;56357;52.304;4.870;2022-08-25T12:37:15;101648.38;;;28.53;51.96
69245;BME280;56357;52.304;4.870;2022-08-25T12:39:56;101640.19;;;28.52;52.64
69245;BME280;56357;52.304;4.870;2022-08-25T12:42:31;101645.75;;;28.57;52.04
69245;BME280;56357;52.304;4.870;2022-08-25T12:47:46;101642.88;;;28.57;52.17
69245;BME280;56357;52.304;4.870;2022-08-25T12:53:08;101638.22;;;28.61;52.11
69245;BME280;56357;52.304;4.870;2022-08-25T12:55:37;101634.72;;;28.64;52.00
69245;BME280;56357;52.304;4.870;2022-08-25T12:58:05;101640.06;;;28.65;52.43
69245;BME280;56357;52.304;4.870;2022-08-25T13:00:50;101638.88;;;28.66;52.14
69245;BME280;56357;52.304;4.870;2022-08-25T13:06:57;101640.22;;;28.69;52.50
69245;BME280;56357;52.304;4.870;2022-08-25T13:12:20;101642.44;;;28.72;51.85
69245;BME280;56357;52.304;4.870;2022-08-25T13:14:53;101641.25;;;28.73;52.08
69245;BME280;56357;52.304;4.870;2022-08-25T13:17:34;101631.03;;;28.72;51.97
69245;BME280;56357;52.304;4.870;2022-08-25T13:20:33;101637.03;;;28.70;51.78
69245;BME280;56357;52.304;4.870;2022-08-25T13:22:59;101623.81;;;28.74;52.06
69245;BME280;56357;52.304;4.870;2022-08-25T13:25:27;101635.38;;;28.78;52.03
69245;BME280;56357;52.304;4.870;2022-08-25T13:27:59;101633.72;;;28.77;51.76
69245;BME280;56357;52.304;4.870;2022-08-25T13:30:32;101631.03;;;28.80;51.94
69245;BME280;56357;52.304;4.870;2022-08-25T13:32:59;101629.88;;;28.81;51.61
69245;BME280;56357;52.304;4.870;2022-08-25T13:35:47;101620.13;;;28.82;52.51
69245;BME280;56357;52.304;4.870;2022-08-25T13:38:16;101620.63;;;28.84;52.68
69245;BME280;56357;52.304;4.870;2022-08-25T13:40:41;101617.78;;;28.84;52.80
69245;BME280;56357;52.304;4.870;2022-08-25T13:43:11;101617.44;;;28.86;52.52
69245;BME280;56357;52.304;4.870;2022-08-25T13:45:43;101604.53;;;28.88;53.33
69245;BME280;56357;52.304;4.870;2022-08-25T13:48:11;101609.03;;;28.89;53.41
69245;BME280;56357;52.304;4.870;2022-08-25T13:50:41;101609.88;;;28.90;53.02
69245;BME280;56357;52.304;4.870;2022-08-25T13:53:13;101610.91;;;28.94;52.48
69245;BME280;56357;52.304;4.870;2022-08-25T13:58:14;101608.72;;;28.91;52.12
69245;BME280;56357;52.304;4.870;2022-08-25T14:00:46;101614.75;;;28.98;51.83
69245;BME280;56357;52.304;4.870;2022-08-25T14:03:35;101613.25;;;29.01;51.57
69245;BME280;56357;52.304;4.870;2022-08-25T14:06:09;101613.75;;;29.03;51.02
69245;BME280;56357;52.304;4.870;2022-08-25T14:08:39;101619.97;;;29.05;51.05
69245;BME280;56357;52.304;4.870;2022-08-25T14:11:55;101616.06;;;29.09;50.65
69245;BME280;56357;52.304;4.870;2022-08-25T14:14:03;101602.66;;;29.10;50.86
69245;BME280;56357;52.304;4.870;2022-08-25T14:16:44;101607.41;;;29.14;50.34
69245;BME280;56357;52.304;4.870;2022-08-25T14:19:15;101610.41;;;29.18;50.14
69245;BME280;56357;52.304;4.870;2022-08-25T14:21:42;101608.06;;;29.20;50.04
69245;BME280;56357;52.304;4.870;2022-08-25T14:24:08;101604.50;;;29.23;50.10
69245;BME280;56357;52.304;4.870;2022-08-25T14:26:39;101596.47;;;29.25;49.88
69245;BME280;56357;52.304;4.870;2022-08-25T14:29:05;101599.81;;;29.27;49.21
69245;BME280;56357;52.304;4.870;2022-08-25T14:31:34;101600.31;;;29.29;49.10
69245;BME280;56357;52.304;4.870;2022-08-25T14:34:15;101598.81;;;29.31;49.22
69245;BME280;56357;52.304;4.870;2022-08-25T14:36:43;101602.97;;;29.34;48.65
69245;BME280;56357;52.304;4.870;2022-08-25T14:39:10;101600.13;;;29.34;48.88
69245;BME280;56357;52.304;4.870;2022-08-25T14:41:38;101598.47;;;29.33;49.98
69245;BME280;56357;52.304;4.870;2022-08-25T14:44:07;101597.09;;;29.39;50.74